sensor_id;sensor_type;location;lat;lon;timestamp;temperature;humidity
74537;SHT31;63013;51.104;-115.370;2022-10-16T00:01:41;23.27;46.62
74537;SHT31;63013;51.104;-115.370;2022-10-16T00:04:08;23.28;46.69
74537;SHT31;63013;51.104;-115.370;2022-10-16T00:06:35;23.27;46.71
74537;SHT31;63013;51.104;-115.370;2022-10-16T00:09:03;23.27;46.77
74537;SHT31;63013;51.104;-115.370;2022-10-16T00:11:32;23.28;46.90
74537;SHT31;63013;51.104;-115.370;2022-10-16T00:14:04;23.28;46.94
74537;SHT31;63013;51.104;-115.370;2022-10-16T00:16:35;23.27;46.95
74537;SHT31;63013;51.104;-115.370;2022-10-16T00:19:02;23.26;46.90
74537;SHT31;63013;51.104;-115.370;2022-10-16T00:21:30;23.25;46.92
74537;SHT31;63013;51.104;-115.370;2022-10-16T00:23:59;23.24;46.96
74537;SHT31;63013;51.104;-115.370;2022-10-16T00:26:34;23.24;46.97
74537;SHT31;63013;51.104;-115.370;2022-10-16T00:29:04;23.24;46.98
74537;SHT31;63013;51.104;-115.370;2022-10-16T00:31:31;23.23;46.98
74537;SHT31;63013;51.104;-115.370;2022-10-16T00:33:59;23.23;46.96
74537;SHT31;63013;51.104;-115.370;2022-10-16T00:36:27;23.23;47.00
74537;SHT31;63013;51.104;-115.370;2022-10-16T00:38:54;23.21;47.03
74537;SHT31;63013;51.104;-115.370;2022-10-16T00:41:25;23.22;47.10
74537;SHT31;63013;51.104;-115.370;2022-10-16T00:43:53;23.21;47.05
74537;SHT31;63013;51.104;-115.370;2022-10-16T00:49:06;23.21;47.03
74537;SHT31;63013;51.104;-115.370;2022-10-16T00:51:48;23.19;47.00
74537;SHT31;63013;51.104;-115.370;2022-10-16T00:54:29;23.19;47.09
74537;SHT31;63013;51.104;-115.370;2022-10-16T00:57:01;23.17;47.18
74537;SHT31;63013;51.104;-115.370;2022-10-16T00:59:39;23.17;47.39
74537;SHT31;63013;51.104;-115.370;2022-10-16T01:02:12;23.16;47.54
74537;SHT31;63013;51.104;-115.370;2022-10-16T01:04:49;23.16;47.59
74537;SHT31;63013;51.104;-115.370;2022-10-16T01:07:37;23.15;47.51
74537;SHT31;63013;51.104;-115.370;2022-10-16T01:10:33;23.15;47.47
74537;SHT31;63013;51.104;-115.370;2022-10-16T01:13:17;23.14;47.40
74537;SHT31;63013;51.104;-115.370;2022-10-16T01:16:08;23.14;47.35
74537;SHT31;63013;51.104;-115.370;2022-10-16T01:18:54;23.13;47.31
74537;SHT31;63013;51.104;-115.370;2022-10-16T01:21:43;23.11;47.27
74537;SHT31;63013;51.104;-115.370;2022-10-16T01:24:25;23.09;47.23
74537;SHT31;63013;51.104;-115.370;2022-10-16T01:27:12;23.09;47.20
74537;SHT31;63013;51.104;-115.370;2022-10-16T01:29:56;23.08;47.20
74537;SHT31;63013;51.104;-115.370;2022-10-16T01:35:47;23.05;47.21
74537;SHT31;63013;51.104;-115.370;2022-10-16T01:38:33;23.03;47.22
74537;SHT31;63013;51.104;-115.370;2022-10-16T01:41:38;23.02;47.21
74537;SHT31;63013;51.104;-115.370;2022-10-16T01:46:46;23.00;47.20
74537;SHT31;63013;51.104;-115.370;2022-10-16T01:49:16;22.98;47.18
74537;SHT31;63013;51.104;-115.370;2022-10-16T01:51:46;22.97;47.14
74537;SHT31;63013;51.104;-115.370;2022-10-16T01:54:21;22.96;47.11
74537;SHT31;63013;51.104;-115.370;2022-10-16T01:56:54;22.95;47.10
74537;SHT31;63013;51.104;-115.370;2022-10-16T01:59:24;22.94;47.10
74537;SHT31;63013;51.104;-115.370;2022-10-16T02:01:58;22.93;47.10
74537;SHT31;63013;51.104;-115.370;2022-10-16T02:07:08;22.90;47.10
74537;SHT31;63013;51.104;-115.370;2022-10-16T02:09:36;22.89;47.10
74537;SHT31;63013;51.104;-115.370;2022-10-16T02:12:15;22.88;47.10
74537;SHT31;63013;51.104;-115.370;2022-10-16T02:14:54;22.86;47.09
74537;SHT31;63013;51.104;-115.370;2022-10-16T02:17:21;22.85;47.04
74537;SHT31;63013;51.104;-115.370;2022-10-16T02:19:49;22.83;47.05
74537;SHT31;63013;51.104;-115.370;2022-10-16T02:22:32;22.82;47.02
74537;SHT31;63013;51.104;-115.370;2022-10-16T02:28:06;22.80;47.00
74537;SHT31;63013;51.104;-115.370;2022-10-16T02:30:41;22.77;47.00
74537;SHT31;63013;51.104;-115.370;2022-10-16T02:33:18;22.76;47.00
74537;SHT31;63013;51.104;-115.370;2022-10-16T02:35:49;22.74;47.00
74537;SHT31;63013;51.104;-115.370;2022-10-16T02:38:19;22.73;46.97
74537;SHT31;63013;51.104;-115.370;2022-10-16T02:40:48;22.73;46.98
74537;SHT31;63013;51.104;-115.370;2022-10-16T02:43:16;22.71;46.94
74537;SHT31;63013;51.104;-115.370;2022-10-16T02:45:44;22.70;46.91
74537;SHT31;63013;51.104;-115.370;2022-10-16T02:48:11;22.69;46.90
74537;SHT31;63013;51.104;-115.370;2022-10-16T02:50:38;22.68;46.90
74537;SHT31;63013;51.104;-115.370;2022-10-16T02:53:05;22.67;46.90
74537;SHT31;63013;51.104;-115.370;2022-10-16T02:55:32;22.67;46.89
74537;SHT31;63013;51.104;-115.370;2022-10-16T02:57:59;22.66;46.83
74537;SHT31;63013;51.104;-115.370;2022-10-16T03:00:26;22.65;46.83
74537;SHT31;63013;51.104;-115.370;2022-10-16T03:02:54;22.65;46.82
74537;SHT31;63013;51.104;-115.370;2022-10-16T03:05:21;22.63;46.80
74537;SHT31;63013;51.104;-115.370;2022-10-16T03:07:48;22.63;46.80
74537;SHT31;63013;51.104;-115.370;2022-10-16T03:10:15;22.62;46.78
74537;SHT31;63013;51.104;-115.370;2022-10-16T03:12:42;22.60;46.73
74537;SHT31;63013;51.104;-115.370;2022-10-16T03:15:09;22.60;46.73
74537;SHT31;63013;51.104;-115.370;2022-10-16T03:17:37;22.59;46.72
74537;SHT31;63013;51.104;-115.370;2022-10-16T03:20:04;22.58;46.76
74537;SHT31;63013;51.104;-115.370;2022-10-16T03:22:32;22.56;46.74
74537;SHT31;63013;51.104;-115.370;2022-10-16T03:24:59;22.54;46.79
74537;SHT31;63013;51.104;-115.370;2022-10-16T03:27:26;22.54;46.81
74537;SHT31;63013;51.104;-115.370;2022-10-16T03:29:53;22.51;46.82
74537;SHT31;63013;51.104;-115.370;2022-10-16T03:32:20;22.51;46.82
74537;SHT31;63013;51.104;-115.370;2022-10-16T03:34:47;22.50;46.81
74537;SHT31;63013;51.104;-115.370;2022-10-16T03:37:14;22.49;46.79
74537;SHT31;63013;51.104;-115.370;2022-10-16T03:39:41;22.48;46.80
74537;SHT31;63013;51.104;-115.370;2022-10-16T03:42:09;22.47;46.75
74537;SHT31;63013;51.104;-115.370;2022-10-16T03:44:36;22.45;46.75
74537;SHT31;63013;51.104;-115.370;2022-10-16T03:47:03;22.45;46.76
74537;SHT31;63013;51.104;-115.370;2022-10-16T03:49:29;22.43;46.72
74537;SHT31;63013;51.104;-115.370;2022-10-16T03:51:56;22.44;46.70
74537;SHT31;63013;51.104;-115.370;2022-10-16T03:54:23;22.42;46.68
74537;SHT31;63013;51.104;-115.370;2022-10-16T03:56:51;22.42;46.66
74537;SHT31;63013;51.104;-115.370;2022-10-16T03:59:18;22.42;46.60
74537;SHT31;63013;51.104;-115.370;2022-10-16T04:01:45;22.40;46.60
74537;SHT31;63013;51.104;-115.370;2022-10-16T04:04:12;22.39;46.60
74537;SHT31;63013;51.104;-115.370;2022-10-16T04:06:39;22.38;46.60
74537;SHT31;63013;51.104;-115.370;2022-10-16T04:09:07;22.36;46.57
74537;SHT31;63013;51.104;-115.370;2022-10-16T04:11:34;22.35;46.57
74537;SHT31;63013;51.104;-115.370;2022-10-16T04:14:01;22.34;46.54
74537;SHT31;63013;51.104;-115.370;2022-10-16T04:16:28;22.33;46.51
74537;SHT31;63013;51.104;-115.370;2022-10-16T04:18:55;22.31;46.50
74537;SHT31;63013;51.104;-115.370;2022-10-16T04:21:22;22.31;46.50
74537;SHT31;63013;51.104;-115.370;2022-10-16T04:23:49;22.30;46.50
74537;SHT31;63013;51.104;-115.370;2022-10-16T04:26:16;22.28;46.49
74537;SHT31;63013;51.104;-115.370;2022-10-16T04:28:43;22.26;46.50
74537;SHT31;63013;51.104;-115.370;2022-10-16T04:31:10;22.25;46.47
74537;SHT31;63013;51.104;-115.370;2022-10-16T04:33:37;22.23;46.44
74537;SHT31;63013;51.104;-115.370;2022-10-16T04:36:08;22.22;46.43
74537;SHT31;63013;51.104;-115.370;2022-10-16T04:38:35;22.20;46.40
74537;SHT31;63013;51.104;-115.370;2022-10-16T04:41:03;22.19;46.41
74537;SHT31;63013;51.104;-115.370;2022-10-16T04:43:30;22.17;46.43
74537;SHT31;63013;51.104;-115.370;2022-10-16T04:45:58;22.16;46.40
74537;SHT31;63013;51.104;-115.370;2022-10-16T04:48:26;22.15;46.41
74537;SHT31;63013;51.104;-115.370;2022-10-16T04:50:53;22.14;46.41
74537;SHT31;63013;51.104;-115.370;2022-10-16T04:53:20;22.12;46.40
74537;SHT31;63013;51.104;-115.370;2022-10-16T04:55:48;22.11;46.40
74537;SHT31;63013;51.104;-115.370;2022-10-16T04:58:16;22.10;46.40
74537;SHT31;63013;51.104;-115.370;2022-10-16T05:00:44;22.08;46.40
74537;SHT31;63013;51.104;-115.370;2022-10-16T05:03:12;22.07;46.39
74537;SHT31;63013;51.104;-115.370;2022-10-16T05:05:42;22.05;46.37
74537;SHT31;63013;51.104;-115.370;2022-10-16T05:08:11;22.03;46.37
74537;SHT31;63013;51.104;-115.370;2022-10-16T05:10:43;22.02;46.35
74537;SHT31;63013;51.104;-115.370;2022-10-16T05:13:11;22.02;46.35
74537;SHT31;63013;51.104;-115.370;2022-10-16T05:15:38;22.00;46.34
74537;SHT31;63013;51.104;-115.370;2022-10-16T05:18:05;21.99;46.32
74537;SHT31;63013;51.104;-115.370;2022-10-16T05:20:32;21.98;46.30
74537;SHT31;63013;51.104;-115.370;2022-10-16T05:23:00;21.96;46.30
74537;SHT31;63013;51.104;-115.370;2022-10-16T05:25:26;21.95;46.30
74537;SHT31;63013;51.104;-115.370;2022-10-16T05:27:53;21.93;46.30
74537;SHT31;63013;51.104;-115.370;2022-10-16T05:30:20;21.92;46.27
74537;SHT31;63013;51.104;-115.370;2022-10-16T05:32:48;21.91;46.24
74537;SHT31;63013;51.104;-115.370;2022-10-16T05:35:17;21.90;46.22
74537;SHT31;63013;51.104;-115.370;2022-10-16T05:37:45;21.90;46.20
74537;SHT31;63013;51.104;-115.370;2022-10-16T05:40:13;21.87;46.20
74537;SHT31;63013;51.104;-115.370;2022-10-16T05:42:42;21.86;46.23
74537;SHT31;63013;51.104;-115.370;2022-10-16T05:45:10;21.86;46.24
74537;SHT31;63013;51.104;-115.370;2022-10-16T05:47:37;21.84;46.21
74537;SHT31;63013;51.104;-115.370;2022-10-16T05:50:05;21.84;46.21
74537;SHT31;63013;51.104;-115.370;2022-10-16T05:52:33;21.82;46.21
74537;SHT31;63013;51.104;-115.370;2022-10-16T05:55:00;21.80;46.20
74537;SHT31;63013;51.104;-115.370;2022-10-16T05:57:27;21.79;46.20
74537;SHT31;63013;51.104;-115.370;2022-10-16T05:59:55;21.79;46.19
74537;SHT31;63013;51.104;-115.370;2022-10-16T06:02:22;21.77;46.20
74537;SHT31;63013;51.104;-115.370;2022-10-16T06:04:51;21.76;46.20
74537;SHT31;63013;51.104;-115.370;2022-10-16T06:07:22;21.74;46.20
74537;SHT31;63013;51.104;-115.370;2022-10-16T06:09:49;21.74;46.20
74537;SHT31;63013;51.104;-115.370;2022-10-16T06:12:20;21.73;46.17
74537;SHT31;63013;51.104;-115.370;2022-10-16T06:14:47;21.72;46.13
74537;SHT31;63013;51.104;-115.370;2022-10-16T06:17:14;21.70;46.10
74537;SHT31;63013;51.104;-115.370;2022-10-16T06:19:41;21.69;46.10
74537;SHT31;63013;51.104;-115.370;2022-10-16T06:22:08;21.68;46.10
74537;SHT31;63013;51.104;-115.370;2022-10-16T06:24:35;21.66;46.10
74537;SHT31;63013;51.104;-115.370;2022-10-16T06:27:03;21.65;46.08
74537;SHT31;63013;51.104;-115.370;2022-10-16T06:29:30;21.63;46.09
74537;SHT31;63013;51.104;-115.370;2022-10-16T06:31:57;21.62;46.10
74537;SHT31;63013;51.104;-115.370;2022-10-16T06:34:25;21.61;46.09
74537;SHT31;63013;51.104;-115.370;2022-10-16T06:36:52;21.60;46.10
74537;SHT31;63013;51.104;-115.370;2022-10-16T06:39:19;21.58;46.10
74537;SHT31;63013;51.104;-115.370;2022-10-16T06:41:46;21.57;46.10
74537;SHT31;63013;51.104;-115.370;2022-10-16T06:44:13;21.57;46.10
74537;SHT31;63013;51.104;-115.370;2022-10-16T06:46:40;21.54;46.10
74537;SHT31;63013;51.104;-115.370;2022-10-16T06:49:07;21.53;46.10
74537;SHT31;63013;51.104;-115.370;2022-10-16T06:51:35;21.51;46.09
74537;SHT31;63013;51.104;-115.370;2022-10-16T06:54:06;21.50;46.07
74537;SHT31;63013;51.104;-115.370;2022-10-16T06:56:34;21.48;46.10
74537;SHT31;63013;51.104;-115.370;2022-10-16T06:59:01;21.46;46.09
74537;SHT31;63013;51.104;-115.370;2022-10-16T07:01:29;21.46;46.10
74537;SHT31;63013;51.104;-115.370;2022-10-16T07:03:57;21.44;46.09
74537;SHT31;63013;51.104;-115.370;2022-10-16T07:06:26;21.42;46.08
74537;SHT31;63013;51.104;-115.370;2022-10-16T07:09:00;21.41;46.09
74537;SHT31;63013;51.104;-115.370;2022-10-16T07:11:30;21.40;46.08
74537;SHT31;63013;51.104;-115.370;2022-10-16T07:13:58;21.39;46.07
74537;SHT31;63013;51.104;-115.370;2022-10-16T07:16:26;21.37;46.04
74537;SHT31;63013;51.104;-115.370;2022-10-16T07:19:00;21.36;46.05
74537;SHT31;63013;51.104;-115.370;2022-10-16T07:21:29;21.34;46.04
74537;SHT31;63013;51.104;-115.370;2022-10-16T07:24:01;21.33;46.01
74537;SHT31;63013;51.104;-115.370;2022-10-16T07:26:29;21.32;46.00
74537;SHT31;63013;51.104;-115.370;2022-10-16T07:28:59;21.30;46.01
74537;SHT31;63013;51.104;-115.370;2022-10-16T07:31:26;21.29;46.01
74537;SHT31;63013;51.104;-115.370;2022-10-16T07:33:54;21.28;46.02
74537;SHT31;63013;51.104;-115.370;2022-10-16T07:36:24;21.27;46.03
74537;SHT31;63013;51.104;-115.370;2022-10-16T07:38:52;21.26;46.00
74537;SHT31;63013;51.104;-115.370;2022-10-16T07:41:19;21.25;46.00
74537;SHT31;63013;51.104;-115.370;2022-10-16T07:43:47;21.24;46.01
74537;SHT31;63013;51.104;-115.370;2022-10-16T07:46:17;21.24;46.01
74537;SHT31;63013;51.104;-115.370;2022-10-16T07:48:46;21.22;46.00
74537;SHT31;63013;51.104;-115.370;2022-10-16T07:51:15;21.20;46.00
74537;SHT31;63013;51.104;-115.370;2022-10-16T07:53:50;21.19;46.00
74537;SHT31;63013;51.104;-115.370;2022-10-16T07:56:18;21.18;45.99
74537;SHT31;63013;51.104;-115.370;2022-10-16T07:58:47;21.17;46.00
74537;SHT31;63013;51.104;-115.370;2022-10-16T08:01:16;21.15;45.99
74537;SHT31;63013;51.104;-115.370;2022-10-16T08:03:44;21.13;46.00
74537;SHT31;63013;51.104;-115.370;2022-10-16T08:06:13;21.12;46.00
74537;SHT31;63013;51.104;-115.370;2022-10-16T08:08:41;21.11;46.00
74537;SHT31;63013;51.104;-115.370;2022-10-16T08:11:08;21.09;45.99
74537;SHT31;63013;51.104;-115.370;2022-10-16T08:13:35;21.08;45.98
74537;SHT31;63013;51.104;-115.370;2022-10-16T08:16:03;21.06;46.00
74537;SHT31;63013;51.104;-115.370;2022-10-16T08:18:34;21.04;45.98
74537;SHT31;63013;51.104;-115.370;2022-10-16T08:21:06;21.03;45.96
74537;SHT31;63013;51.104;-115.370;2022-10-16T08:23:39;21.02;46.00
74537;SHT31;63013;51.104;-115.370;2022-10-16T08:26:07;21.01;45.98
74537;SHT31;63013;51.104;-115.370;2022-10-16T08:28:35;20.99;45.99
74537;SHT31;63013;51.104;-115.370;2022-10-16T08:31:13;20.98;45.99
74537;SHT31;63013;51.104;-115.370;2022-10-16T08:33:42;20.98;46.00
74537;SHT31;63013;51.104;-115.370;2022-10-16T08:36:12;20.96;45.99
74537;SHT31;63013;51.104;-115.370;2022-10-16T08:38:40;20.95;46.00
74537;SHT31;63013;51.104;-115.370;2022-10-16T08:44:09;20.92;45.99
74537;SHT31;63013;51.104;-115.370;2022-10-16T08:49:51;20.87;46.00
74537;SHT31;63013;51.104;-115.370;2022-10-16T08:52:38;20.86;46.00
74537;SHT31;63013;51.104;-115.370;2022-10-16T08:55:17;20.85;45.99
74537;SHT31;63013;51.104;-115.370;2022-10-16T08:58:00;20.84;46.00
74537;SHT31;63013;51.104;-115.370;2022-10-16T09:00:27;20.83;46.00
74537;SHT31;63013;51.104;-115.370;2022-10-16T09:03:02;20.80;46.00
74537;SHT31;63013;51.104;-115.370;2022-10-16T09:09:01;20.77;46.00
74537;SHT31;63013;51.104;-115.370;2022-10-16T09:20:13;20.71;46.00
74537;SHT31;63013;51.104;-115.370;2022-10-16T09:23:10;20.69;46.00
74537;SHT31;63013;51.104;-115.370;2022-10-16T09:25:44;20.69;46.00
74537;SHT31;63013;51.104;-115.370;2022-10-16T09:28:14;20.67;45.99
74537;SHT31;63013;51.104;-115.370;2022-10-16T09:30:44;20.65;46.00
74537;SHT31;63013;51.104;-115.370;2022-10-16T09:33:15;20.63;46.00
74537;SHT31;63013;51.104;-115.370;2022-10-16T09:35:51;20.63;46.00
74537;SHT31;63013;51.104;-115.370;2022-10-16T09:38:42;20.61;46.00
74537;SHT31;63013;51.104;-115.370;2022-10-16T09:43:55;20.58;46.00
74537;SHT31;63013;51.104;-115.370;2022-10-16T09:46:33;20.57;46.00
74537;SHT31;63013;51.104;-115.370;2022-10-16T09:49:16;20.55;46.01
74537;SHT31;63013;51.104;-115.370;2022-10-16T09:51:51;20.53;46.00
74537;SHT31;63013;51.104;-115.370;2022-10-16T09:54:32;20.51;46.00
74537;SHT31;63013;51.104;-115.370;2022-10-16T09:57:10;20.50;46.00
74537;SHT31;63013;51.104;-115.370;2022-10-16T09:59:46;20.49;46.01
74537;SHT31;63013;51.104;-115.370;2022-10-16T10:02:16;20.48;46.01
74537;SHT31;63013;51.104;-115.370;2022-10-16T10:04:52;20.46;46.00
74537;SHT31;63013;51.104;-115.370;2022-10-16T10:07:24;20.45;46.00
74537;SHT31;63013;51.104;-115.370;2022-10-16T10:09:59;20.44;46.01
74537;SHT31;63013;51.104;-115.370;2022-10-16T10:12:32;20.43;46.00
74537;SHT31;63013;51.104;-115.370;2022-10-16T10:17:53;20.40;46.00
74537;SHT31;63013;51.104;-115.370;2022-10-16T10:20:24;20.38;46.00
74537;SHT31;63013;51.104;-115.370;2022-10-16T10:31:38;20.36;46.00
74537;SHT31;63013;51.104;-115.370;2022-10-16T10:46:02;20.27;46.01
74537;SHT31;63013;51.104;-115.370;2022-10-16T10:48:54;20.25;46.01
74537;SHT31;63013;51.104;-115.370;2022-10-16T10:55:23;20.22;46.02
74537;SHT31;63013;51.104;-115.370;2022-10-16T11:00:57;20.18;46.01
74537;SHT31;63013;51.104;-115.370;2022-10-16T11:06:57;20.15;46.02
74537;SHT31;63013;51.104;-115.370;2022-10-16T11:10:34;20.15;46.03
74537;SHT31;63013;51.104;-115.370;2022-10-16T11:12:49;20.13;46.00
74537;SHT31;63013;51.104;-115.370;2022-10-16T11:15:27;20.12;46.02
74537;SHT31;63013;51.104;-115.370;2022-10-16T11:20:57;20.10;46.02
74537;SHT31;63013;51.104;-115.370;2022-10-16T11:26:05;20.07;46.01
74537;SHT31;63013;51.104;-115.370;2022-10-16T11:28:50;20.06;46.04
74537;SHT31;63013;51.104;-115.370;2022-10-16T11:37:05;19.99;46.10
74537;SHT31;63013;51.104;-115.370;2022-10-16T11:39:46;19.97;46.10
74537;SHT31;63013;51.104;-115.370;2022-10-16T11:42:22;19.96;46.10
74537;SHT31;63013;51.104;-115.370;2022-10-16T11:45:26;19.95;46.10
74537;SHT31;63013;51.104;-115.370;2022-10-16T11:54:05;19.89;46.12
74537;SHT31;63013;51.104;-115.370;2022-10-16T11:57:02;19.88;46.13
74537;SHT31;63013;51.104;-115.370;2022-10-16T12:05:25;19.83;46.13
74537;SHT31;63013;51.104;-115.370;2022-10-16T12:08:13;19.82;46.17
74537;SHT31;63013;51.104;-115.370;2022-10-16T12:10:43;19.81;46.17
74537;SHT31;63013;51.104;-115.370;2022-10-16T12:16:19;19.78;46.19
74537;SHT31;63013;51.104;-115.370;2022-10-16T12:18:49;19.77;46.18
74537;SHT31;63013;51.104;-115.370;2022-10-16T12:21:39;19.75;46.20
74537;SHT31;63013;51.104;-115.370;2022-10-16T12:24:20;19.73;46.20
74537;SHT31;63013;51.104;-115.370;2022-10-16T12:27:18;19.73;46.20
74537;SHT31;63013;51.104;-115.370;2022-10-16T12:30:01;19.71;46.22
74537;SHT31;63013;51.104;-115.370;2022-10-16T12:32:32;19.69;46.24
74537;SHT31;63013;51.104;-115.370;2022-10-16T12:35:03;19.68;46.25
74537;SHT31;63013;51.104;-115.370;2022-10-16T12:37:43;19.67;46.28
74537;SHT31;63013;51.104;-115.370;2022-10-16T12:40:12;19.66;46.26
74537;SHT31;63013;51.104;-115.370;2022-10-16T12:42:50;19.65;46.24
74537;SHT31;63013;51.104;-115.370;2022-10-16T12:45:31;19.64;46.25
74537;SHT31;63013;51.104;-115.370;2022-10-16T12:48:00;19.62;46.27
74537;SHT31;63013;51.104;-115.370;2022-10-16T12:53:04;19.60;46.26
74537;SHT31;63013;51.104;-115.370;2022-10-16T12:56:03;19.58;46.27
74537;SHT31;63013;51.104;-115.370;2022-10-16T12:59:04;19.58;46.23
74537;SHT31;63013;51.104;-115.370;2022-10-16T13:11:05;19.53;46.30
74537;SHT31;63013;51.104;-115.370;2022-10-16T13:19:54;19.49;46.47
74537;SHT31;63013;51.104;-115.370;2022-10-16T13:22:58;19.48;46.50
74537;SHT31;63013;51.104;-115.370;2022-10-16T13:28:43;19.44;46.50
74537;SHT31;63013;51.104;-115.370;2022-10-16T13:31:21;19.43;46.55
74537;SHT31;63013;51.104;-115.370;2022-10-16T13:33:54;19.42;46.57
74537;SHT31;63013;51.104;-115.370;2022-10-16T13:36:26;19.40;46.60
74537;SHT31;63013;51.104;-115.370;2022-10-16T13:39:14;19.39;46.60
74537;SHT31;63013;51.104;-115.370;2022-10-16T13:41:44;19.38;46.60
74537;SHT31;63013;51.104;-115.370;2022-10-16T13:44:17;19.37;46.61
74537;SHT31;63013;51.104;-115.370;2022-10-16T13:46:46;19.37;46.64
74537;SHT31;63013;51.104;-115.370;2022-10-16T13:49:24;19.36;46.70
74537;SHT31;63013;51.104;-115.370;2022-10-16T13:51:58;19.34;46.70
74537;SHT31;63013;51.104;-115.370;2022-10-16T13:54:26;19.33;46.72
74537;SHT31;63013;51.104;-115.370;2022-10-16T13:57:04;19.31;46.72
74537;SHT31;63013;51.104;-115.370;2022-10-16T13:59:33;19.31;46.75
74537;SHT31;63013;51.104;-115.370;2022-10-16T14:02:15;19.29;46.73
74537;SHT31;63013;51.104;-115.370;2022-10-16T14:05:03;19.28;46.79
74537;SHT31;63013;51.104;-115.370;2022-10-16T14:07:35;19.26;46.79
74537;SHT31;63013;51.104;-115.370;2022-10-16T14:10:05;19.26;46.78
74537;SHT31;63013;51.104;-115.370;2022-10-16T14:13:23;19.25;46.80
74537;SHT31;63013;51.104;-115.370;2022-10-16T14:15:46;19.21;46.80
74537;SHT31;63013;51.104;-115.370;2022-10-16T14:18:18;19.21;46.80
74537;SHT31;63013;51.104;-115.370;2022-10-16T14:20:52;19.20;46.81
74537;SHT31;63013;51.104;-115.370;2022-10-16T14:23:23;19.20;46.76
74537;SHT31;63013;51.104;-115.370;2022-10-16T14:28:39;19.24;46.79
74537;SHT31;63013;51.104;-115.370;2022-10-16T14:33:50;19.30;46.82
74537;SHT31;63013;51.104;-115.370;2022-10-16T14:36:17;19.34;46.80
74537;SHT31;63013;51.104;-115.370;2022-10-16T14:39:03;19.38;46.80
74537;SHT31;63013;51.104;-115.370;2022-10-16T14:41:46;19.42;46.76
74537;SHT31;63013;51.104;-115.370;2022-10-16T14:44:18;19.45;46.72
74537;SHT31;63013;51.104;-115.370;2022-10-16T14:46:52;19.49;46.70
74537;SHT31;63013;51.104;-115.370;2022-10-16T14:49:19;19.53;46.69
74537;SHT31;63013;51.104;-115.370;2022-10-16T14:51:49;19.57;46.68
74537;SHT31;63013;51.104;-115.370;2022-10-16T14:54:18;19.60;46.69
74537;SHT31;63013;51.104;-115.370;2022-10-16T14:56:52;19.65;46.68
74537;SHT31;63013;51.104;-115.370;2022-10-16T15:02:33;19.74;46.70
74537;SHT31;63013;51.104;-115.370;2022-10-16T15:05:20;19.80;46.70
74537;SHT31;63013;51.104;-115.370;2022-10-16T15:07:53;19.89;46.70
74537;SHT31;63013;51.104;-115.370;2022-10-16T15:10:21;19.95;46.70
74537;SHT31;63013;51.104;-115.370;2022-10-16T15:12:51;20.02;46.71
74537;SHT31;63013;51.104;-115.370;2022-10-16T15:15:27;20.08;46.65
74537;SHT31;63013;51.104;-115.370;2022-10-16T15:17:58;20.10;46.63
74537;SHT31;63013;51.104;-115.370;2022-10-16T15:20:27;20.11;46.63
74537;SHT31;63013;51.104;-115.370;2022-10-16T15:23:00;20.11;46.70
74537;SHT31;63013;51.104;-115.370;2022-10-16T15:25:49;20.10;46.79
74537;SHT31;63013;51.104;-115.370;2022-10-16T15:28:19;20.08;46.84
74537;SHT31;63013;51.104;-115.370;2022-10-16T15:30:49;20.07;46.80
74537;SHT31;63013;51.104;-115.370;2022-10-16T15:33:19;20.06;46.70
74537;SHT31;63013;51.104;-115.370;2022-10-16T15:35:49;20.06;46.73
74537;SHT31;63013;51.104;-115.370;2022-10-16T15:38:18;20.08;46.75
74537;SHT31;63013;51.104;-115.370;2022-10-16T15:40:48;20.11;46.79
74537;SHT31;63013;51.104;-115.370;2022-10-16T15:43:16;20.15;46.80
74537;SHT31;63013;51.104;-115.370;2022-10-16T15:45:44;20.18;46.80
74537;SHT31;63013;51.104;-115.370;2022-10-16T15:48:36;20.19;46.80
74537;SHT31;63013;51.104;-115.370;2022-10-16T15:51:04;20.20;46.99
74537;SHT31;63013;51.104;-115.370;2022-10-16T15:53:33;20.20;47.12
74537;SHT31;63013;51.104;-115.370;2022-10-16T15:56:02;20.18;47.23
74537;SHT31;63013;51.104;-115.370;2022-10-16T15:58:30;20.17;47.38
74537;SHT31;63013;51.104;-115.370;2022-10-16T16:00:58;20.15;47.52
74537;SHT31;63013;51.104;-115.370;2022-10-16T16:03:27;20.14;47.60
74537;SHT31;63013;51.104;-115.370;2022-10-16T16:05:55;20.13;47.72
74537;SHT31;63013;51.104;-115.370;2022-10-16T16:08:22;20.12;47.86
74537;SHT31;63013;51.104;-115.370;2022-10-16T16:11:04;20.10;47.88
74537;SHT31;63013;51.104;-115.370;2022-10-16T16:13:37;20.09;47.92
74537;SHT31;63013;51.104;-115.370;2022-10-16T16:16:09;20.09;47.96
74537;SHT31;63013;51.104;-115.370;2022-10-16T16:18:41;20.10;47.79
74537;SHT31;63013;51.104;-115.370;2022-10-16T16:21:12;20.11;47.60
74537;SHT31;63013;51.104;-115.370;2022-10-16T16:23:39;20.15;47.50
74537;SHT31;63013;51.104;-115.370;2022-10-16T16:28:42;20.23;47.37
74537;SHT31;63013;51.104;-115.370;2022-10-16T16:31:09;20.25;47.33
74537;SHT31;63013;51.104;-115.370;2022-10-16T16:33:36;20.27;47.40
74537;SHT31;63013;51.104;-115.370;2022-10-16T16:36:04;20.27;47.51
74537;SHT31;63013;51.104;-115.370;2022-10-16T16:38:32;20.29;47.59
74537;SHT31;63013;51.104;-115.370;2022-10-16T16:40:59;20.28;47.67
74537;SHT31;63013;51.104;-115.370;2022-10-16T16:43:41;20.27;47.71
74537;SHT31;63013;51.104;-115.370;2022-10-16T16:46:08;20.27;47.77
74537;SHT31;63013;51.104;-115.370;2022-10-16T16:48:36;20.27;47.82
74537;SHT31;63013;51.104;-115.370;2022-10-16T16:51:07;20.27;47.85
74537;SHT31;63013;51.104;-115.370;2022-10-16T16:53:42;20.25;47.88
74537;SHT31;63013;51.104;-115.370;2022-10-16T16:56:12;20.25;47.90
74537;SHT31;63013;51.104;-115.370;2022-10-16T16:58:39;20.25;47.84
74537;SHT31;63013;51.104;-115.370;2022-10-16T17:01:08;20.26;47.71
74537;SHT31;63013;51.104;-115.370;2022-10-16T17:03:36;20.28;47.61
74537;SHT31;63013;51.104;-115.370;2022-10-16T17:08:34;20.35;47.48
74537;SHT31;63013;51.104;-115.370;2022-10-16T17:11:01;20.38;47.41
74537;SHT31;63013;51.104;-115.370;2022-10-16T17:13:31;20.38;47.41
74537;SHT31;63013;51.104;-115.370;2022-10-16T17:16:03;20.39;47.40
74537;SHT31;63013;51.104;-115.370;2022-10-16T17:18:32;20.38;47.49
74537;SHT31;63013;51.104;-115.370;2022-10-16T17:21:01;20.37;47.57
74537;SHT31;63013;51.104;-115.370;2022-10-16T17:23:31;20.36;47.58
74537;SHT31;63013;51.104;-115.370;2022-10-16T17:26:03;20.34;47.58
74537;SHT31;63013;51.104;-115.370;2022-10-16T17:28:41;20.33;47.60